Kansas City, Missouri
Traffic Map
Current Weather Conditions
Kansas City, Missouri
Overcast
Overcast
12°
Feels Like: 12°
Wind Chill: 12° Ceiling: 1700
Heat Index: 12° Visibility: 10mi
Dew Point: Wind: 7mph
Humidity: 80% Direction: 340° (NNW)
Pressure: 29.58in Gusts: 0mph
Raw Report DataKMKC 301954Z 34006KT 10SM OVC017 12/09 A2958 RMK AO2 RAE1856 SLP014 P0000 T01220089
Traffic Incident Summary
Active as of:
Severity:
Category:
InformationThere was an issue retrieving the traffic information for this location. Please try a different location or try again shortly.
Advertisements
Track Severe Weather on mobile